createdAt,value
2022-11-03T00:01:38.440Z,100149.00
2022-11-03T00:04:08.636Z,100137.00
2022-11-03T00:06:39.109Z,100133.00
2022-11-03T00:09:11.025Z,100136.00
2022-11-03T00:11:41.797Z,100132.00
2022-11-03T00:14:11.237Z,100128.00
2022-11-03T00:16:40.593Z,100112.00
2022-11-03T00:19:10.365Z,100138.00
2022-11-03T00:21:40.011Z,100124.00
2022-11-03T00:24:08.891Z,100132.00
2022-11-03T00:26:37.989Z,100133.00
2022-11-03T00:29:10.411Z,100141.00
2022-11-03T00:31:41.066Z,100138.00
2022-11-03T00:34:09.977Z,100149.00
2022-11-03T00:36:42.497Z,100134.00
2022-11-03T00:39:11.499Z,100134.00
2022-11-03T00:41:40.407Z,100136.00
2022-11-03T00:44:10.370Z,100143.00
2022-11-03T00:46:38.708Z,100129.00
2022-11-03T00:49:07.447Z,100143.00
2022-11-03T00:51:36.108Z,100139.00
2022-11-03T00:54:07.115Z,100139.00
2022-11-03T00:56:38.046Z,100116.00
2022-11-03T00:59:08.309Z,100136.00
2022-11-03T01:01:45.332Z,100116.00
2022-11-03T01:04:32.700Z,100131.00
2022-11-03T01:07:02.051Z,100128.00
2022-11-03T01:09:36.153Z,100123.00
2022-11-03T01:12:08.066Z,100121.00
2022-11-03T01:14:39.872Z,100114.00
2022-11-03T01:17:11.061Z,100109.00
2022-11-03T01:19:39.397Z,100115.00
2022-11-03T01:22:10.877Z,100110.00
2022-11-03T01:24:41.826Z,100114.00
2022-11-03T01:27:10.971Z,100109.00
2022-11-03T01:29:38.993Z,100108.00
2022-11-03T01:32:08.285Z,100105.00
2022-11-03T01:34:36.718Z,100107.00
2022-11-03T01:37:05.388Z,100084.00
2022-11-03T01:39:33.567Z,100112.00
2022-11-03T01:42:03.225Z,100099.00
2022-11-03T01:44:37.282Z,100099.00
2022-11-03T01:47:21.889Z,100085.00
2022-11-03T01:49:56.629Z,100086.00
2022-11-03T01:52:31.049Z,100087.00
2022-11-03T01:55:05.084Z,100086.00
2022-11-03T01:57:42.237Z,100068.00
2022-11-03T02:00:12.000Z,100060.00
2022-11-03T02:02:44.276Z,100073.00
2022-11-03T02:05:16.134Z,100062.00
2022-11-03T02:07:52.134Z,100050.00
2022-11-03T02:10:21.305Z,100062.00
2022-11-03T02:12:50.717Z,100053.00
2022-11-03T02:15:22.521Z,100045.00
2022-11-03T02:17:53.825Z,100051.00
2022-11-03T02:20:25.837Z,100050.00
2022-11-03T02:23:12.055Z,100048.00
2022-11-03T02:25:47.334Z,100036.00
2022-11-03T02:28:19.832Z,100038.00
2022-11-03T02:31:00.705Z,100034.00
2022-11-03T02:33:50.104Z,100031.00
2022-11-03T02:36:25.973Z,100023.00
2022-11-03T02:39:01.226Z,100022.00
2022-11-03T02:41:35.185Z,100021.00
2022-11-03T02:44:06.322Z,100017.00
2022-11-03T02:46:37.353Z,100005.00
2022-11-03T02:49:05.369Z,100007.00
2022-11-03T02:51:34.737Z,100000.00
2022-11-03T02:54:10.136Z,99997.00
2022-11-03T02:56:50.563Z,100005.00
2022-11-03T02:59:25.552Z,99990.00
2022-11-03T03:02:03.121Z,99995.00
2022-11-03T03:04:38.033Z,99981.00
2022-11-03T03:07:11.987Z,99983.00
2022-11-03T03:09:47.009Z,99982.00
2022-11-03T03:12:21.295Z,99965.00
2022-11-03T03:14:52.217Z,99978.00
2022-11-03T03:17:27.714Z,99976.00
2022-11-03T03:20:04.592Z,99973.00
2022-11-03T03:22:39.061Z,99964.00
2022-11-03T03:25:14.766Z,99961.00
2022-11-03T03:27:49.873Z,99958.00
2022-11-03T03:30:19.863Z,99950.00
2022-11-03T03:32:50.878Z,99947.00
2022-11-03T03:35:23.864Z,99945.00
2022-11-03T03:37:57.140Z,99944.00
2022-11-03T03:40:32.951Z,99905.00
2022-11-03T03:43:04.529Z,99935.00
2022-11-03T03:45:35.264Z,99940.00
2022-11-03T03:48:06.201Z,99933.00
2022-11-03T03:50:39.478Z,99929.00
2022-11-03T03:53:12.969Z,99933.00
2022-11-03T03:55:45.606Z,99929.00
2022-11-03T03:58:16.806Z,99928.00
2022-11-03T04:00:45.506Z,99922.00
2022-11-03T04:03:18.532Z,99928.00
2022-11-03T04:05:47.333Z,99920.00
2022-11-03T04:08:17.111Z,99912.00
2022-11-03T04:11:06.434Z,99912.00
2022-11-03T04:14:08.278Z,99912.00
2022-11-03T04:16:53.760Z,99907.00
2022-11-03T04:19:39.517Z,99909.00
2022-11-03T04:22:17.505Z,99905.00
2022-11-03T04:24:47.830Z,99900.00
2022-11-03T04:27:35.037Z,99894.00
2022-11-03T04:30:16.440Z,99896.00
2022-11-03T04:32:45.909Z,99890.00
2022-11-03T04:35:18.318Z,99890.00
2022-11-03T04:37:52.435Z,99881.00
2022-11-03T04:40:20.868Z,99876.00
2022-11-03T04:42:49.210Z,99874.00
2022-11-03T04:45:27.164Z,99871.00
2022-11-03T04:47:56.081Z,99878.00
2022-11-03T04:50:25.646Z,99870.00
2022-11-03T04:52:58.496Z,99863.00
2022-11-03T04:55:28.114Z,99864.00
2022-11-03T04:58:01.163Z,99871.00
2022-11-03T05:00:30.541Z,99868.00
2022-11-03T05:02:58.626Z,99862.00
2022-11-03T05:05:27.718Z,99867.00
2022-11-03T05:07:59.322Z,99871.00
2022-11-03T05:10:30.367Z,99870.00
2022-11-03T05:13:01.491Z,99861.00
2022-11-03T05:15:36.811Z,99864.00
2022-11-03T05:18:20.546Z,99852.00
2022-11-03T05:20:54.912Z,99853.00
2022-11-03T05:23:23.996Z,99873.00
2022-11-03T05:25:55.091Z,99864.00
2022-11-03T05:28:28.741Z,99869.00
2022-11-03T05:30:58.282Z,99862.00
2022-11-03T05:33:33.775Z,99859.00
2022-11-03T05:36:07.243Z,99860.00
2022-11-03T05:38:35.886Z,99854.00
2022-11-03T05:41:04.231Z,99852.00
2022-11-03T05:43:32.256Z,99845.00
2022-11-03T05:46:04.487Z,99839.00
2022-11-03T05:48:38.376Z,99842.00
2022-11-03T05:51:20.046Z,99833.00
2022-11-03T05:53:52.141Z,99829.00
2022-11-03T05:56:24.760Z,99820.00
2022-11-03T05:58:56.603Z,99826.00
2022-11-03T06:01:31.453Z,99813.00
2022-11-03T06:04:02.106Z,99821.00
2022-11-03T06:06:35.819Z,99817.00
2022-11-03T06:09:13.836Z,99826.00
2022-11-03T06:11:43.199Z,99821.00
2022-11-03T06:14:21.219Z,99823.00
2022-11-03T06:16:55.282Z,99832.00
2022-11-03T06:19:28.837Z,99837.00
2022-11-03T06:22:02.894Z,99832.00
2022-11-03T06:24:34.939Z,99826.00
2022-11-03T06:27:03.068Z,99835.00
2022-11-03T06:29:34.377Z,99784.00
2022-11-03T06:32:03.801Z,99828.00
2022-11-03T06:34:46.241Z,99830.00
2022-11-03T06:37:23.917Z,99821.00
2022-11-03T06:39:58.872Z,99824.00
2022-11-03T06:42:32.983Z,99810.00
2022-11-03T06:45:10.725Z,99819.00
2022-11-03T06:47:42.093Z,99817.00
2022-11-03T06:50:25.529Z,99794.00
2022-11-03T06:52:55.549Z,99800.00
2022-11-03T06:55:28.003Z,99807.00
2022-11-03T06:58:00.540Z,99804.00
2022-11-03T07:00:36.208Z,99799.00
2022-11-03T07:03:15.374Z,99783.00
2022-11-03T07:05:45.052Z,99799.00
2022-11-03T07:08:23.603Z,99783.00
2022-11-03T07:10:58.178Z,99786.00
2022-11-03T07:13:28.376Z,99789.00
2022-11-03T07:15:56.551Z,99788.00
2022-11-03T07:18:30.692Z,99788.00
2022-11-03T07:21:00.004Z,99794.00
2022-11-03T07:23:31.528Z,99798.00
2022-11-03T07:26:02.287Z,99795.00
2022-11-03T07:28:37.329Z,99780.00
2022-11-03T07:31:16.965Z,99777.00
2022-11-03T07:33:47.554Z,99797.00
2022-11-03T07:36:21.737Z,99789.00
2022-11-03T07:38:54.175Z,99794.00
2022-11-03T07:41:29.686Z,99793.00
2022-11-03T07:44:02.995Z,99793.00
2022-11-03T07:46:31.580Z,99788.00
2022-11-03T07:49:03.552Z,99791.00
2022-11-03T07:51:34.745Z,99765.00
2022-11-03T07:54:11.045Z,99775.00
2022-11-03T07:56:43.878Z,99778.00
2022-11-03T07:59:19.504Z,99767.00
2022-11-03T08:01:50.857Z,99764.00
2022-11-03T08:04:24.038Z,99763.00
2022-11-03T08:06:52.638Z,99759.00
2022-11-03T08:09:22.215Z,99760.00
2022-11-03T08:11:50.992Z,99745.00
2022-11-03T08:14:19.146Z,99748.00
2022-11-03T08:16:47.373Z,99736.00
2022-11-03T08:19:15.383Z,99734.00
2022-11-03T08:21:44.794Z,99728.00
2022-11-03T08:24:12.771Z,99724.00
2022-11-03T08:26:40.797Z,99723.00
2022-11-03T08:29:08.930Z,99723.00
2022-11-03T08:31:36.947Z,99719.00
2022-11-03T08:34:05.078Z,99717.00
2022-11-03T08:36:33.137Z,99717.00
2022-11-03T08:39:02.493Z,99713.00
2022-11-03T08:41:30.728Z,99708.00
2022-11-03T08:43:58.739Z,99705.00
2022-11-03T08:46:26.769Z,99699.00
2022-11-03T08:48:54.835Z,99696.00
2022-11-03T08:51:22.897Z,99691.00
2022-11-03T08:53:53.936Z,99676.00
2022-11-03T08:56:23.873Z,99683.00
2022-11-03T08:58:52.203Z,99668.00
2022-11-03T09:01:20.333Z,99664.00
2022-11-03T09:03:48.439Z,99663.00
2022-11-03T09:06:16.622Z,99662.00
2022-11-03T09:11:34.033Z,99656.00
2022-11-03T09:14:02.025Z,99652.00
2022-11-03T09:16:30.032Z,99644.00
2022-11-03T09:18:58.056Z,99643.00
2022-11-03T09:21:26.071Z,99648.00
2022-11-03T09:23:54.102Z,99643.00
2022-11-03T09:26:22.240Z,99634.00
2022-11-03T09:28:51.794Z,99625.00
2022-11-03T09:31:20.417Z,99620.00
2022-11-03T09:33:48.479Z,99626.00
2022-11-03T09:36:16.590Z,99624.00
2022-11-03T09:38:44.672Z,99615.00
2022-11-03T09:41:26.603Z,99611.00
2022-11-03T09:44:04.948Z,99604.00
2022-11-03T09:46:35.177Z,99598.00
2022-11-03T09:49:05.959Z,99602.00
2022-11-03T09:51:36.500Z,99582.00
2022-11-03T09:54:06.813Z,99571.00
2022-11-03T09:56:37.960Z,99578.00
2022-11-03T09:59:16.619Z,99563.00
2022-11-03T10:01:48.812Z,99566.00
2022-11-03T10:04:19.765Z,99566.00
2022-11-03T10:06:47.810Z,99572.00
2022-11-03T10:09:20.563Z,99557.00
2022-11-03T10:11:49.196Z,99552.00
2022-11-03T10:14:20.253Z,99544.00
2022-11-03T10:17:00.271Z,99546.00
2022-11-03T10:19:28.588Z,99540.00
2022-11-03T10:21:56.617Z,99531.00
2022-11-03T10:24:26.024Z,99522.00
2022-11-03T10:26:55.888Z,99515.00
2022-11-03T10:29:27.148Z,99525.00
2022-11-03T10:31:58.383Z,99497.00
2022-11-03T10:34:34.729Z,99507.00
2022-11-03T10:37:20.832Z,99500.00
2022-11-03T10:39:49.957Z,99497.00
2022-11-03T10:42:21.329Z,99484.00
2022-11-03T10:44:54.310Z,99486.00
2022-11-03T10:47:33.658Z,99476.00
2022-11-03T10:50:22.395Z,99469.00
2022-11-03T10:52:51.493Z,99468.00
2022-11-03T10:55:24.850Z,99455.00
2022-11-03T10:57:55.549Z,99454.00
2022-11-03T11:00:26.056Z,99455.00
2022-11-03T11:03:01.944Z,99451.00
2022-11-03T11:05:30.145Z,99448.00
2022-11-03T11:08:00.554Z,99420.00
2022-11-03T11:10:31.376Z,99434.00
2022-11-03T11:13:27.414Z,99430.00
2022-11-03T11:15:59.018Z,99420.00
2022-11-03T11:19:03.266Z,99411.00
2022-11-03T11:22:14.943Z,99382.00
2022-11-03T11:25:00.541Z,99404.00
2022-11-03T11:27:58.729Z,99413.00
2022-11-03T11:30:58.749Z,99407.00
2022-11-03T11:33:29.399Z,99394.00
2022-11-03T11:36:28.169Z,99399.00
2022-11-03T11:39:00.736Z,99392.00
2022-11-03T11:42:07.723Z,99389.00
2022-11-03T11:44:57.595Z,99390.00
2022-11-03T11:47:43.536Z,99371.00
2022-11-03T11:50:32.317Z,99381.00
2022-11-03T11:53:12.158Z,99380.00
2022-11-03T11:55:46.557Z,99368.00
2022-11-03T11:58:22.542Z,99352.00
2022-11-03T12:00:57.733Z,99356.00
2022-11-03T12:03:39.219Z,99344.00
2022-11-03T12:06:08.169Z,99338.00
2022-11-03T12:08:36.226Z,99346.00
2022-11-03T12:11:07.787Z,99340.00
2022-11-03T12:13:52.321Z,99336.00
2022-11-03T12:16:35.538Z,99331.00
2022-11-03T12:19:40.958Z,99330.00
2022-11-03T12:22:11.734Z,99323.00
2022-11-03T12:24:50.006Z,99289.00
2022-11-03T12:27:44.225Z,99320.00
2022-11-03T12:30:19.773Z,99305.00
2022-11-03T12:32:48.717Z,99297.00
2022-11-03T12:35:18.317Z,99300.00
2022-11-03T12:37:46.711Z,99295.00
2022-11-03T12:40:15.640Z,99284.00
2022-11-03T12:42:43.774Z,99277.00
2022-11-03T12:45:13.526Z,99270.00
2022-11-03T12:47:41.771Z,99269.00
2022-11-03T12:50:11.124Z,99261.00
2022-11-03T12:52:40.448Z,99263.00
2022-11-03T12:55:09.453Z,99260.00
2022-11-03T12:57:37.472Z,99249.00
2022-11-03T13:00:07.366Z,99249.00
2022-11-03T13:02:35.837Z,99247.00
2022-11-03T13:05:04.316Z,99235.00
2022-11-03T13:07:35.028Z,99231.00
2022-11-03T13:10:05.370Z,99216.00
2022-11-03T13:12:33.884Z,99213.00
2022-11-03T13:15:04.224Z,99205.00
2022-11-03T13:17:52.032Z,99197.00
2022-11-03T13:20:20.402Z,99135.00
2022-11-03T13:22:48.389Z,99170.00
2022-11-03T13:25:18.890Z,99169.00
2022-11-03T13:27:46.976Z,99167.00
2022-11-03T13:30:15.214Z,99155.00
2022-11-03T13:32:43.361Z,99162.00
2022-11-03T13:35:13.879Z,99151.00
2022-11-03T13:37:42.203Z,99147.00
2022-11-03T13:40:29.221Z,99143.00
2022-11-03T13:43:01.821Z,99146.00
2022-11-03T13:45:29.851Z,99147.00
2022-11-03T13:48:48.485Z,99148.00
2022-11-03T13:50:46.226Z,99146.00
2022-11-03T13:56:06.848Z,99124.00
2022-11-03T14:01:27.972Z,99117.00
2022-11-03T14:06:44.308Z,99111.00
2022-11-03T14:09:12.323Z,99111.00
2022-11-03T14:11:58.090Z,99112.00
2022-11-03T14:14:27.488Z,99108.00
2022-11-03T14:16:55.576Z,99114.00
2022-11-03T14:19:30.812Z,99103.00
2022-11-03T14:22:03.877Z,99099.00
2022-11-03T14:24:31.890Z,99093.00
2022-11-03T14:27:00.341Z,99085.00
2022-11-03T14:29:29.719Z,99085.00
2022-11-03T14:31:57.758Z,99079.00
2022-11-03T14:34:25.875Z,99080.00
2022-11-03T14:36:54.184Z,99068.00
2022-11-03T14:39:22.347Z,99077.00
2022-11-03T14:42:04.730Z,99069.00
2022-11-03T14:44:36.347Z,99057.00
2022-11-03T14:47:07.057Z,99049.00
2022-11-03T14:49:36.479Z,99049.00
2022-11-03T14:52:07.247Z,99037.00
2022-11-03T14:54:36.491Z,99034.00
2022-11-03T14:57:05.123Z,99020.00
2022-11-03T14:59:35.348Z,99027.00
2022-11-03T15:02:04.708Z,99023.00
2022-11-03T15:04:33.107Z,99006.00
2022-11-03T15:07:01.474Z,99009.00
2022-11-03T15:09:29.517Z,99006.00
2022-11-03T15:11:57.538Z,99005.00
2022-11-03T15:14:25.599Z,99012.00
2022-11-03T15:16:54.948Z,99008.00
2022-11-03T15:19:23.246Z,99005.00
2022-11-03T15:21:51.306Z,99005.00
2022-11-03T15:27:07.293Z,98981.00
2022-11-03T15:29:35.913Z,98993.00
2022-11-03T15:32:06.788Z,98982.00
2022-11-03T15:34:34.846Z,98968.00
2022-11-03T15:37:02.889Z,98966.00
2022-11-03T15:39:31.164Z,98970.00
2022-11-03T15:42:00.277Z,98963.00
2022-11-03T15:44:28.485Z,98965.00
2022-11-03T15:46:56.490Z,98953.00
2022-11-03T15:49:25.971Z,98958.00
2022-11-03T15:51:54.001Z,98959.00
2022-11-03T15:54:21.992Z,98964.00
2022-11-03T15:56:50.179Z,98966.00
2022-11-03T15:59:18.989Z,98959.00
2022-11-03T16:01:47.181Z,98956.00
2022-11-03T16:04:16.177Z,98954.00
2022-11-03T16:09:33.774Z,98949.00
2022-11-03T16:12:02.829Z,98945.00
2022-11-03T16:14:31.191Z,98939.00
2022-11-03T16:16:59.564Z,98933.00
2022-11-03T16:19:27.609Z,98924.00
2022-11-03T16:21:56.973Z,98931.00
2022-11-03T16:24:33.240Z,98925.00
2022-11-03T16:27:03.573Z,98926.00
2022-11-03T16:29:31.810Z,98935.00
2022-11-03T16:31:59.893Z,98926.00
2022-11-03T16:34:27.911Z,98922.00
2022-11-03T16:36:57.335Z,98919.00
2022-11-03T16:39:25.359Z,98912.00
2022-11-03T16:41:54.754Z,98898.00
2022-11-03T16:44:23.053Z,98888.00
2022-11-03T16:46:51.101Z,98877.00
2022-11-03T16:49:19.136Z,98872.00
2022-11-03T16:51:47.192Z,98858.00
2022-11-03T16:54:16.636Z,98855.00
2022-11-03T16:56:45.126Z,98858.00
2022-11-03T16:59:13.186Z,98845.00
2022-11-03T17:01:41.518Z,98832.00
2022-11-03T17:04:09.710Z,98838.00
2022-11-03T17:06:37.769Z,98813.00
2022-11-03T17:09:06.461Z,98822.00
2022-11-03T17:11:39.420Z,98818.00
2022-11-03T17:14:13.232Z,98821.00
2022-11-03T17:16:45.453Z,98825.00
2022-11-03T17:19:13.990Z,98814.00
2022-11-03T17:21:42.052Z,98804.00
2022-11-03T17:24:11.244Z,98808.00
2022-11-03T17:26:58.780Z,98786.00
2022-11-03T17:29:35.678Z,98769.00
2022-11-03T17:32:06.541Z,98786.00
2022-11-03T17:34:34.828Z,98783.00
2022-11-03T17:37:02.894Z,98782.00
2022-11-03T17:39:35.085Z,98770.00
2022-11-03T17:42:16.443Z,98771.00
2022-11-03T17:44:45.443Z,98770.00
2022-11-03T17:47:13.455Z,98775.00
2022-11-03T17:49:41.560Z,98764.00
2022-11-03T17:52:15.421Z,98751.00
2022-11-03T17:54:43.669Z,98752.00
2022-11-03T17:57:19.243Z,98738.00
2022-11-03T17:59:50.810Z,98743.00
2022-11-03T18:02:23.031Z,98753.00
2022-11-03T18:04:54.121Z,98737.00
2022-11-03T18:07:26.913Z,98737.00
2022-11-03T18:09:55.713Z,98716.00
2022-11-03T18:12:50.040Z,98724.00
2022-11-03T18:15:23.245Z,98712.00
2022-11-03T18:17:52.227Z,98718.00
2022-11-03T18:20:25.590Z,98718.00
2022-11-03T18:22:53.687Z,98710.00
2022-11-03T18:25:23.104Z,98708.00
2022-11-03T18:27:52.456Z,98702.00
2022-11-03T18:30:20.457Z,98706.00
2022-11-03T18:32:48.958Z,98695.00
2022-11-03T18:35:21.141Z,98696.00
2022-11-03T18:37:49.363Z,98690.00
2022-11-03T18:40:20.159Z,98679.00
2022-11-03T18:42:48.231Z,98679.00
2022-11-03T18:45:19.736Z,98675.00
2022-11-03T18:47:47.831Z,98666.00
2022-11-03T18:50:20.451Z,98665.00
2022-11-03T18:52:51.949Z,98657.00
2022-11-03T18:55:20.040Z,98655.00
2022-11-03T18:57:48.472Z,98648.00
2022-11-03T19:00:22.841Z,98640.00
2022-11-03T19:02:51.380Z,98648.00
2022-11-03T19:05:20.638Z,98645.00
2022-11-03T19:07:53.015Z,98657.00
2022-11-03T19:10:24.104Z,98637.00
2022-11-03T19:12:52.605Z,98633.00
2022-11-03T19:15:25.955Z,98630.00
2022-11-03T19:17:58.076Z,98622.00
2022-11-03T19:20:26.248Z,98614.00
2022-11-03T19:22:54.255Z,98605.00
2022-11-03T19:25:22.308Z,98594.00
2022-11-03T19:27:50.691Z,98588.00
2022-11-03T19:30:21.275Z,98592.00
2022-11-03T19:32:54.292Z,98575.00
2022-11-03T19:35:27.140Z,98563.00
2022-11-03T19:38:03.203Z,98575.00
2022-11-03T19:40:32.469Z,98570.00
2022-11-03T19:42:59.894Z,98559.00
2022-11-03T19:45:29.403Z,98551.00
2022-11-03T19:50:49.677Z,98554.00
2022-11-03T19:53:23.322Z,98540.00
2022-11-03T19:55:51.674Z,98546.00
2022-11-03T19:58:23.681Z,98540.00
2022-11-03T20:00:54.493Z,98541.00
2022-11-03T20:03:23.186Z,98535.00
2022-11-03T20:05:55.470Z,98536.00
2022-11-03T20:08:26.624Z,98534.00
2022-11-03T20:10:54.780Z,98534.00
2022-11-03T20:13:26.867Z,98541.00
2022-11-03T20:16:00.498Z,98521.00
2022-11-03T20:18:29.887Z,98523.00
2022-11-03T20:20:58.650Z,98517.00
2022-11-03T20:23:30.398Z,98519.00
2022-11-03T20:26:00.017Z,98515.00
2022-11-03T20:28:32.672Z,98509.00
2022-11-03T20:31:03.699Z,98503.00
2022-11-03T20:33:32.583Z,98476.00
2022-11-03T20:36:01.270Z,98500.00
2022-11-03T20:38:30.166Z,98499.00
2022-11-03T20:41:03.040Z,98494.00
2022-11-03T20:43:36.385Z,98484.00
2022-11-03T20:46:22.818Z,98488.00
2022-11-03T20:48:51.289Z,98483.00
2022-11-03T20:51:22.413Z,98480.00
2022-11-03T20:53:51.451Z,98475.00
2022-11-03T20:56:21.934Z,98476.00
2022-11-03T20:58:50.834Z,98471.00
2022-11-03T21:01:26.915Z,98471.00
2022-11-03T21:04:00.247Z,98465.00
2022-11-03T21:06:31.168Z,98464.00
2022-11-03T21:09:00.294Z,98463.00
2022-11-03T21:11:35.162Z,98463.00
2022-11-03T21:14:14.198Z,98470.00
2022-11-03T21:17:01.641Z,98463.00
2022-11-03T21:19:50.469Z,98462.00
2022-11-03T21:25:15.191Z,98458.00
2022-11-03T21:27:43.297Z,98462.00
2022-11-03T21:30:13.520Z,98436.00
2022-11-03T21:32:43.679Z,98460.00
2022-11-03T21:35:16.498Z,98466.00
2022-11-03T21:37:44.714Z,98465.00
2022-11-03T21:40:13.191Z,98446.00
2022-11-03T21:42:58.820Z,98447.00
2022-11-03T21:45:27.242Z,98447.00
2022-11-03T21:48:14.817Z,98443.00
2022-11-03T21:50:43.929Z,98450.00
2022-11-03T21:53:12.495Z,98450.00
2022-11-03T21:55:41.086Z,98449.00
2022-11-03T21:58:09.350Z,98442.00
2022-11-03T22:00:37.410Z,98454.00
2022-11-03T22:03:07.124Z,98454.00
2022-11-03T22:05:35.350Z,98445.00
2022-11-03T22:08:03.366Z,98440.00
2022-11-03T22:10:31.618Z,98436.00
2022-11-03T22:12:59.676Z,98441.00
2022-11-03T22:15:45.218Z,98433.00
2022-11-03T22:18:14.585Z,98429.00
2022-11-03T22:21:00.165Z,98433.00
2022-11-03T22:23:45.680Z,98426.00
2022-11-03T22:26:34.336Z,98428.00
2022-11-03T22:29:19.676Z,98383.00
2022-11-03T22:31:47.724Z,98419.00
2022-11-03T22:34:34.784Z,98408.00
2022-11-03T22:37:02.801Z,98404.00
2022-11-03T22:39:48.657Z,98390.00
2022-11-03T22:42:34.295Z,98384.00
2022-11-03T22:45:20.133Z,98384.00
2022-11-03T22:47:48.128Z,98383.00
2022-11-03T22:50:17.625Z,98379.00
2022-11-03T22:52:45.630Z,98388.00
2022-11-03T22:55:12.707Z,98380.00
2022-11-03T22:57:40.702Z,98371.00
2022-11-03T23:00:10.887Z,98381.00
2022-11-03T23:02:38.888Z,98377.00
2022-11-03T23:05:08.188Z,98369.00
2022-11-03T23:07:41.167Z,98376.00
2022-11-03T23:10:10.423Z,98377.00
2022-11-03T23:12:38.484Z,98373.00
2022-11-03T23:15:26.397Z,98372.00
2022-11-03T23:18:12.103Z,98368.00
2022-11-03T23:20:57.654Z,98367.00
2022-11-03T23:23:44.634Z,98369.00
2022-11-03T23:26:13.069Z,98372.00
2022-11-03T23:28:41.209Z,98360.00
2022-11-03T23:31:10.079Z,98353.00
2022-11-03T23:33:38.459Z,98352.00
2022-11-03T23:36:09.421Z,98348.00
2022-11-03T23:38:40.879Z,98337.00
2022-11-03T23:41:11.825Z,98342.00
2022-11-03T23:43:40.342Z,98343.00
2022-11-03T23:46:29.048Z,98354.00
2022-11-03T23:48:58.650Z,98337.00
2022-11-03T23:51:29.196Z,98336.00
2022-11-03T23:54:00.544Z,98334.00
2022-11-03T23:56:48.984Z,98332.00
2022-11-03T23:59:18.040Z,98327.00
